Etusivu
METAR-TAF:

METAR-TAF

Lentoasemat :

Richard I. Bong Airport

Superior, Wisconsin, Yhdysvallat

Leveyspiiri: 46-41-23N, Pituuspiiri: 092-05-41W, korkeus merenpinnasta: 205 m

Tämänhetkinen sää

Tämä raportti tehtiin 8 minuuttia sitten, kello 07.55 UTC
Tuuli 13 kn lounaasta
Lämpötila -7°C
Kosteus 73%
Ilmanpaine 1012 hPa
Näkyvyys: 16.1 km
Hajanaisia pilviä 2700 ft:n korkeudessa

METAR: KSUW 220755Z AUTO 22013KT 10SM SCT027 M07/M11 A2988 RMK AO2 T10661110

Aika: 02:03 (08:03 UTC)


TAF: puuttuu

Säähavainnot ja -ennusteet yli 4000 lentoasemalta (METAR- ja TAF-raportit).

Käytössä olevat sääasemat on merkitty karttaan keltaisilla ja punaisilla pisteillä.

Aseta hiiri pisteen päälle nähdäksesi sääaseman nimen.

Klikkaa sitten nähdäksesi säähavainnot ja -ennusteet.

Kartan vaihtaminen: klikkaa mustalla rastilla varustettuja vihreitä pisteitä, niin voit zoomata sisään; viivalla varustettua vihreää pistettä, niin voit zoomata ulos tai vihreitä nuolia, niin pääset viereisille kartoille.


METAR-TAF: